sensor_id;sensor_type;location;lat;lon;timestamp;pressure;altitude;pressure_sealevel;temperature
71205;BMP180;58935;54.498;18.544;2024-02-14T00:02:18;100761.80;;;4.14
71205;BMP180;58935;54.498;18.544;2024-02-14T00:04:43;100759.20;;;4.10
71205;BMP180;58935;54.498;18.544;2024-02-14T00:07:09;100756.00;;;4.12
71205;BMP180;58935;54.498;18.544;2024-02-14T00:09:35;100753.40;;;4.10
71205;BMP180;58935;54.498;18.544;2024-02-14T00:12:03;100763.40;;;4.10
71205;BMP180;58935;54.498;18.544;2024-02-14T00:14:28;100761.20;;;4.10
71205;BMP180;58935;54.498;18.544;2024-02-14T00:16:54;100759.20;;;4.10
71205;BMP180;58935;54.498;18.544;2024-02-14T00:19:19;100756.80;;;4.06
71205;BMP180;58935;54.498;18.544;2024-02-14T00:21:45;100757.80;;;4.00
71205;BMP180;58935;54.498;18.544;2024-02-14T00:24:10;100762.00;;;4.00
71205;BMP180;58935;54.498;18.544;2024-02-14T00:26:37;100756.60;;;4.00
71205;BMP180;58935;54.498;18.544;2024-02-14T00:29:04;100760.00;;;4.00
71205;BMP180;58935;54.498;18.544;2024-02-14T00:31:29;100757.80;;;3.96
71205;BMP180;58935;54.498;18.544;2024-02-14T00:33:55;100754.60;;;3.90
71205;BMP180;58935;54.498;18.544;2024-02-14T00:36:20;100758.40;;;3.90
71205;BMP180;58935;54.498;18.544;2024-02-14T00:38:46;100756.00;;;3.90
71205;BMP180;58935;54.498;18.544;2024-02-14T00:41:11;100759.80;;;3.90
71205;BMP180;58935;54.498;18.544;2024-02-14T00:43:39;100762.60;;;3.80
71205;BMP180;58935;54.498;18.544;2024-02-14T00:46:04;100764.20;;;3.80
71205;BMP180;58935;54.498;18.544;2024-02-14T00:48:32;100767.00;;;3.80
71205;BMP180;58935;54.498;18.544;2024-02-14T00:50:58;100765.40;;;3.70
71205;BMP180;58935;54.498;18.544;2024-02-14T00:53:24;100765.00;;;3.70
71205;BMP180;58935;54.498;18.544;2024-02-14T00:55:50;100764.00;;;3.70
71205;BMP180;58935;54.498;18.544;2024-02-14T00:58:15;100766.00;;;3.60
71205;BMP180;58935;54.498;18.544;2024-02-14T01:00:40;100769.80;;;3.60
71205;BMP180;58935;54.498;18.544;2024-02-14T01:03:10;100770.60;;;3.52
71205;BMP180;58935;54.498;18.544;2024-02-14T01:05:38;100777.20;;;3.50
71205;BMP180;58935;54.498;18.544;2024-02-14T01:08:05;100771.60;;;3.50
71205;BMP180;58935;54.498;18.544;2024-02-14T01:10:30;100771.40;;;3.42
71205;BMP180;58935;54.498;18.544;2024-02-14T01:12:56;100763.40;;;3.40
71205;BMP180;58935;54.498;18.544;2024-02-14T01:15:22;100764.00;;;3.40
71205;BMP180;58935;54.498;18.544;2024-02-14T01:17:49;100761.40;;;3.36
71205;BMP180;58935;54.498;18.544;2024-02-14T01:20:17;100762.00;;;3.30
71205;BMP180;58935;54.498;18.544;2024-02-14T01:22:43;100764.40;;;3.30
71205;BMP180;58935;54.498;18.544;2024-02-14T01:25:12;100769.80;;;3.30
71205;BMP180;58935;54.498;18.544;2024-02-14T01:27:39;100764.60;;;3.20
71205;BMP180;58935;54.498;18.544;2024-02-14T01:30:06;100763.20;;;3.20
71205;BMP180;58935;54.498;18.544;2024-02-14T01:32:31;100770.80;;;3.20
71205;BMP180;58935;54.498;18.544;2024-02-14T01:34:59;100766.20;;;3.10
71205;BMP180;58935;54.498;18.544;2024-02-14T01:37:26;100760.80;;;3.10
71205;BMP180;58935;54.498;18.544;2024-02-14T01:39:52;100760.00;;;3.10
71205;BMP180;58935;54.498;18.544;2024-02-14T01:42:22;100766.60;;;3.10
71205;BMP180;58935;54.498;18.544;2024-02-14T01:44:50;100768.20;;;3.00
71205;BMP180;58935;54.498;18.544;2024-02-14T01:47:16;100770.80;;;3.00
71205;BMP180;58935;54.498;18.544;2024-02-14T01:49:45;100767.20;;;3.00
71205;BMP180;58935;54.498;18.544;2024-02-14T01:52:10;100761.40;;;3.00
71205;BMP180;58935;54.498;18.544;2024-02-14T01:54:39;100763.60;;;2.90
71205;BMP180;58935;54.498;18.544;2024-02-14T01:57:05;100764.40;;;2.90
71205;BMP180;58935;54.498;18.544;2024-02-14T01:59:33;100765.80;;;2.80
71205;BMP180;58935;54.498;18.544;2024-02-14T02:02:05;100768.00;;;2.80
71205;BMP180;58935;54.498;18.544;2024-02-14T02:04:33;100767.00;;;2.80
71205;BMP180;58935;54.498;18.544;2024-02-14T02:07:00;100769.00;;;2.70
71205;BMP180;58935;54.498;18.544;2024-02-14T02:09:25;100778.60;;;2.70
71205;BMP180;58935;54.498;18.544;2024-02-14T02:11:52;100775.60;;;2.70
71205;BMP180;58935;54.498;18.544;2024-02-14T02:14:21;100779.60;;;2.70
71205;BMP180;58935;54.498;18.544;2024-02-14T02:16:49;100779.20;;;2.62
71205;BMP180;58935;54.498;18.544;2024-02-14T02:19:15;100779.80;;;2.60
71205;BMP180;58935;54.498;18.544;2024-02-14T02:21:42;100779.00;;;2.60
71205;BMP180;58935;54.498;18.544;2024-02-14T02:24:11;100776.00;;;2.60
71205;BMP180;58935;54.498;18.544;2024-02-14T02:26:37;100776.60;;;2.60
71205;BMP180;58935;54.498;18.544;2024-02-14T02:29:02;100774.00;;;2.60
71205;BMP180;58935;54.498;18.544;2024-02-14T02:31:29;100781.00;;;2.58
71205;BMP180;58935;54.498;18.544;2024-02-14T02:33:54;100780.60;;;2.50
71205;BMP180;58935;54.498;18.544;2024-02-14T02:36:20;100782.40;;;2.50
71205;BMP180;58935;54.498;18.544;2024-02-14T02:38:45;100783.00;;;2.50
71205;BMP180;58935;54.498;18.544;2024-02-14T02:41:10;100779.80;;;2.50
71205;BMP180;58935;54.498;18.544;2024-02-14T02:43:36;100782.40;;;2.50
71205;BMP180;58935;54.498;18.544;2024-02-14T02:46:03;100775.40;;;2.50
71205;BMP180;58935;54.498;18.544;2024-02-14T02:48:29;100781.60;;;2.44
71205;BMP180;58935;54.498;18.544;2024-02-14T02:50:54;100785.40;;;2.46
71205;BMP180;58935;54.498;18.544;2024-02-14T02:53:20;100785.00;;;2.42
71205;BMP180;58935;54.498;18.544;2024-02-14T02:55:46;100784.00;;;2.40
71205;BMP180;58935;54.498;18.544;2024-02-14T02:58:11;100785.60;;;2.40
71205;BMP180;58935;54.498;18.544;2024-02-14T03:00:37;100790.20;;;2.40
71205;BMP180;58935;54.498;18.544;2024-02-14T03:03:03;100787.00;;;2.40
71205;BMP180;58935;54.498;18.544;2024-02-14T03:05:30;100793.40;;;2.40
71205;BMP180;58935;54.498;18.544;2024-02-14T03:07:59;100791.60;;;2.40
71205;BMP180;58935;54.498;18.544;2024-02-14T03:10:25;100794.40;;;2.40
71205;BMP180;58935;54.498;18.544;2024-02-14T03:12:51;100795.80;;;2.40
71205;BMP180;58935;54.498;18.544;2024-02-14T03:15:18;100796.00;;;2.36
71205;BMP180;58935;54.498;18.544;2024-02-14T03:17:45;100798.60;;;2.32
71205;BMP180;58935;54.498;18.544;2024-02-14T03:20:14;100798.80;;;2.34
71205;BMP180;58935;54.498;18.544;2024-02-14T03:22:41;100793.20;;;2.34
71205;BMP180;58935;54.498;18.544;2024-02-14T03:25:13;100803.20;;;2.40
71205;BMP180;58935;54.498;18.544;2024-02-14T03:27:43;100805.80;;;2.40
71205;BMP180;58935;54.498;18.544;2024-02-14T03:30:13;100808.40;;;2.40
71205;BMP180;58935;54.498;18.544;2024-02-14T03:32:43;100811.20;;;2.44
71205;BMP180;58935;54.498;18.544;2024-02-14T03:35:08;100810.80;;;2.46
71205;BMP180;58935;54.498;18.544;2024-02-14T03:37:38;100813.40;;;2.50
71205;BMP180;58935;54.498;18.544;2024-02-14T03:40:07;100810.60;;;2.48
71205;BMP180;58935;54.498;18.544;2024-02-14T03:42:34;100806.00;;;2.46
71205;BMP180;58935;54.498;18.544;2024-02-14T03:44:59;100805.40;;;2.40
71205;BMP180;58935;54.498;18.544;2024-02-14T03:47:32;100806.40;;;2.42
71205;BMP180;58935;54.498;18.544;2024-02-14T03:49:59;100809.80;;;2.40
71205;BMP180;58935;54.498;18.544;2024-02-14T03:52:25;100807.00;;;2.40
71205;BMP180;58935;54.498;18.544;2024-02-14T03:54:50;100810.20;;;2.40
71205;BMP180;58935;54.498;18.544;2024-02-14T03:57:17;100816.20;;;2.40
71205;BMP180;58935;54.498;18.544;2024-02-14T03:59:44;100807.40;;;2.40
71205;BMP180;58935;54.498;18.544;2024-02-14T04:02:10;100808.00;;;2.40
71205;BMP180;58935;54.498;18.544;2024-02-14T04:04:37;100808.80;;;2.42
71205;BMP180;58935;54.498;18.544;2024-02-14T04:07:04;100807.60;;;2.48
71205;BMP180;58935;54.498;18.544;2024-02-14T04:09:29;100810.20;;;2.50
71205;BMP180;58935;54.498;18.544;2024-02-14T04:11:54;100801.20;;;2.50
71205;BMP180;58935;54.498;18.544;2024-02-14T04:14:20;100806.40;;;2.50
71205;BMP180;58935;54.498;18.544;2024-02-14T04:16:46;100802.40;;;2.58
71205;BMP180;58935;54.498;18.544;2024-02-14T04:19:11;100801.00;;;2.60
71205;BMP180;58935;54.498;18.544;2024-02-14T04:21:38;100805.80;;;2.60
71205;BMP180;58935;54.498;18.544;2024-02-14T04:24:06;100807.60;;;2.60
71205;BMP180;58935;54.498;18.544;2024-02-14T04:26:33;100806.60;;;2.68
71205;BMP180;58935;54.498;18.544;2024-02-14T04:29:02;100804.40;;;2.70
71205;BMP180;58935;54.498;18.544;2024-02-14T04:31:28;100801.60;;;2.70
71205;BMP180;58935;54.498;18.544;2024-02-14T04:33:56;100805.00;;;2.70
71205;BMP180;58935;54.498;18.544;2024-02-14T04:36:21;100809.40;;;2.80
71205;BMP180;58935;54.498;18.544;2024-02-14T04:38:49;100812.60;;;2.80
71205;BMP180;58935;54.498;18.544;2024-02-14T04:41:16;100811.80;;;2.80
71205;BMP180;58935;54.498;18.544;2024-02-14T04:43:42;100806.40;;;2.80
71205;BMP180;58935;54.498;18.544;2024-02-14T04:46:07;100811.00;;;2.90
71205;BMP180;58935;54.498;18.544;2024-02-14T04:48:34;100814.80;;;2.90
71205;BMP180;58935;54.498;18.544;2024-02-14T04:51:05;100810.60;;;2.90
71205;BMP180;58935;54.498;18.544;2024-02-14T04:53:31;100809.40;;;3.00
71205;BMP180;58935;54.498;18.544;2024-02-14T04:55:57;100809.00;;;3.00
71205;BMP180;58935;54.498;18.544;2024-02-14T04:58:23;100814.40;;;3.08
71205;BMP180;58935;54.498;18.544;2024-02-14T05:00:49;100817.00;;;3.10
71205;BMP180;58935;54.498;18.544;2024-02-14T05:03:14;100809.00;;;3.10
71205;BMP180;58935;54.498;18.544;2024-02-14T05:05:41;100810.80;;;3.18
71205;BMP180;58935;54.498;18.544;2024-02-14T05:08:07;100815.40;;;3.20
71205;BMP180;58935;54.498;18.544;2024-02-14T05:10:32;100817.20;;;3.20
71205;BMP180;58935;54.498;18.544;2024-02-14T05:12:58;100815.60;;;3.20
71205;BMP180;58935;54.498;18.544;2024-02-14T05:15:23;100822.40;;;3.20
71205;BMP180;58935;54.498;18.544;2024-02-14T05:17:49;100821.20;;;3.28
71205;BMP180;58935;54.498;18.544;2024-02-14T05:20:16;100824.20;;;3.20
71205;BMP180;58935;54.498;18.544;2024-02-14T05:22:42;100824.60;;;3.20
71205;BMP180;58935;54.498;18.544;2024-02-14T05:25:08;100821.60;;;3.20
71205;BMP180;58935;54.498;18.544;2024-02-14T05:27:35;100815.20;;;3.24
71205;BMP180;58935;54.498;18.544;2024-02-14T05:30:03;100812.20;;;3.30
71205;BMP180;58935;54.498;18.544;2024-02-14T05:32:32;100813.60;;;3.30
71205;BMP180;58935;54.498;18.544;2024-02-14T05:34:58;100809.80;;;3.30
71205;BMP180;58935;54.498;18.544;2024-02-14T05:37:24;100812.20;;;3.30
71205;BMP180;58935;54.498;18.544;2024-02-14T05:39:53;100812.80;;;3.36
71205;BMP180;58935;54.498;18.544;2024-02-14T05:42:20;100815.40;;;3.40
71205;BMP180;58935;54.498;18.544;2024-02-14T05:44:47;100820.00;;;3.40
71205;BMP180;58935;54.498;18.544;2024-02-14T05:47:13;100825.60;;;3.40
71205;BMP180;58935;54.498;18.544;2024-02-14T05:49:40;100825.00;;;3.40
71205;BMP180;58935;54.498;18.544;2024-02-14T05:52:08;100830.00;;;3.42
71205;BMP180;58935;54.498;18.544;2024-02-14T05:54:36;100831.60;;;3.50
71205;BMP180;58935;54.498;18.544;2024-02-14T05:57:02;100828.00;;;3.50
71205;BMP180;58935;54.498;18.544;2024-02-14T05:59:28;100831.60;;;3.50
71205;BMP180;58935;54.498;18.544;2024-02-14T06:01:58;100834.00;;;3.48
71205;BMP180;58935;54.498;18.544;2024-02-14T06:04:23;100835.80;;;3.50
71205;BMP180;58935;54.498;18.544;2024-02-14T06:06:49;100832.80;;;3.50
71205;BMP180;58935;54.498;18.544;2024-02-14T06:09:14;100841.40;;;3.50
71205;BMP180;58935;54.498;18.544;2024-02-14T06:11:40;100842.20;;;3.50
71205;BMP180;58935;54.498;18.544;2024-02-14T06:14:06;100842.20;;;3.50
71205;BMP180;58935;54.498;18.544;2024-02-14T06:16:33;100847.40;;;3.50
71205;BMP180;58935;54.498;18.544;2024-02-14T06:18:59;100851.00;;;3.50
71205;BMP180;58935;54.498;18.544;2024-02-14T06:21:25;100847.40;;;3.50
71205;BMP180;58935;54.498;18.544;2024-02-14T06:23:51;100847.40;;;3.50
71205;BMP180;58935;54.498;18.544;2024-02-14T06:26:17;100853.40;;;3.50
71205;BMP180;58935;54.498;18.544;2024-02-14T06:28:44;100853.80;;;3.54
71205;BMP180;58935;54.498;18.544;2024-02-14T06:31:09;100852.60;;;3.56
71205;BMP180;58935;54.498;18.544;2024-02-14T06:33:36;100857.60;;;3.56
71205;BMP180;58935;54.498;18.544;2024-02-14T06:36:02;100854.20;;;3.58
71205;BMP180;58935;54.498;18.544;2024-02-14T06:38:27;100857.80;;;3.60
71205;BMP180;58935;54.498;18.544;2024-02-14T06:40:53;100856.20;;;3.60
71205;BMP180;58935;54.498;18.544;2024-02-14T06:43:18;100851.80;;;3.60
71205;BMP180;58935;54.498;18.544;2024-02-14T06:45:44;100856.40;;;3.60
71205;BMP180;58935;54.498;18.544;2024-02-14T06:48:12;100864.20;;;3.62
71205;BMP180;58935;54.498;18.544;2024-02-14T06:50:37;100858.20;;;3.70
71205;BMP180;58935;54.498;18.544;2024-02-14T06:53:04;100858.60;;;3.70
71205;BMP180;58935;54.498;18.544;2024-02-14T06:55:29;100857.20;;;3.70
71205;BMP180;58935;54.498;18.544;2024-02-14T06:57:59;100860.80;;;3.76
71205;BMP180;58935;54.498;18.544;2024-02-14T07:00:27;100854.00;;;3.80
71205;BMP180;58935;54.498;18.544;2024-02-14T07:05:27;100858.00;;;3.80
71205;BMP180;58935;54.498;18.544;2024-02-14T07:07:55;100860.00;;;3.90
71205;BMP180;58935;54.498;18.544;2024-02-14T07:10:20;100854.40;;;3.90
71205;BMP180;58935;54.498;18.544;2024-02-14T07:12:45;100852.60;;;3.92
71205;BMP180;58935;54.498;18.544;2024-02-14T07:15:11;100863.40;;;4.00
71205;BMP180;58935;54.498;18.544;2024-02-14T07:18:17;100863.20;;;4.00
71205;BMP180;58935;54.498;18.544;2024-02-14T07:20:42;100859.60;;;4.10
71205;BMP180;58935;54.498;18.544;2024-02-14T07:23:08;100855.60;;;4.16
71205;BMP180;58935;54.498;18.544;2024-02-14T07:25:34;100852.40;;;4.20
71205;BMP180;58935;54.498;18.544;2024-02-14T07:27:59;100853.40;;;4.26
71205;BMP180;58935;54.498;18.544;2024-02-14T07:30:24;100848.40;;;4.30
71205;BMP180;58935;54.498;18.544;2024-02-14T07:32:50;100850.80;;;4.30
71205;BMP180;58935;54.498;18.544;2024-02-14T07:35:17;100860.80;;;4.40
71205;BMP180;58935;54.498;18.544;2024-02-14T07:37:42;100861.20;;;4.40
71205;BMP180;58935;54.498;18.544;2024-02-14T07:40:10;100862.80;;;4.40
71205;BMP180;58935;54.498;18.544;2024-02-14T07:42:36;100871.00;;;4.40
71205;BMP180;58935;54.498;18.544;2024-02-14T07:45:01;100867.20;;;4.40
71205;BMP180;58935;54.498;18.544;2024-02-14T07:47:29;100865.40;;;4.40
71205;BMP180;58935;54.498;18.544;2024-02-14T07:49:54;100868.20;;;4.48
71205;BMP180;58935;54.498;18.544;2024-02-14T07:52:22;100868.20;;;4.50
71205;BMP180;58935;54.498;18.544;2024-02-14T07:54:55;100869.00;;;4.50
71205;BMP180;58935;54.498;18.544;2024-02-14T07:57:25;100858.20;;;4.60
71205;BMP180;58935;54.498;18.544;2024-02-14T07:59:51;100861.60;;;4.60
71205;BMP180;58935;54.498;18.544;2024-02-14T08:02:19;100862.00;;;4.60
71205;BMP180;58935;54.498;18.544;2024-02-14T08:04:45;100865.40;;;4.70
71205;BMP180;58935;54.498;18.544;2024-02-14T08:07:10;100863.40;;;4.70
71205;BMP180;58935;54.498;18.544;2024-02-14T08:09:38;100867.20;;;4.70
71205;BMP180;58935;54.498;18.544;2024-02-14T08:12:05;100868.20;;;4.78
71205;BMP180;58935;54.498;18.544;2024-02-14T08:14:34;100868.60;;;4.80
71205;BMP180;58935;54.498;18.544;2024-02-14T08:16:59;100862.20;;;4.80
71205;BMP180;58935;54.498;18.544;2024-02-14T08:19:24;100860.40;;;4.80
71205;BMP180;58935;54.498;18.544;2024-02-14T08:21:50;100857.40;;;4.80
71205;BMP180;58935;54.498;18.544;2024-02-14T08:24:15;100857.20;;;4.80
71205;BMP180;58935;54.498;18.544;2024-02-14T08:26:40;100858.60;;;4.80
71205;BMP180;58935;54.498;18.544;2024-02-14T08:29:06;100861.60;;;4.88
71205;BMP180;58935;54.498;18.544;2024-02-14T08:31:32;100865.00;;;4.90
71205;BMP180;58935;54.498;18.544;2024-02-14T08:33:58;100865.80;;;4.94
71205;BMP180;58935;54.498;18.544;2024-02-14T08:36:24;100864.20;;;5.00
71205;BMP180;58935;54.498;18.544;2024-02-14T08:38:50;100874.40;;;5.10
71205;BMP180;58935;54.498;18.544;2024-02-14T08:41:15;100874.40;;;5.10
71205;BMP180;58935;54.498;18.544;2024-02-14T08:43:41;100874.20;;;5.20
71205;BMP180;58935;54.498;18.544;2024-02-14T08:46:10;100872.00;;;5.30
71205;BMP180;58935;54.498;18.544;2024-02-14T08:48:39;100869.00;;;5.40
71205;BMP180;58935;54.498;18.544;2024-02-14T08:51:12;100875.40;;;5.50
71205;BMP180;58935;54.498;18.544;2024-02-14T08:53:38;100872.60;;;5.60
71205;BMP180;58935;54.498;18.544;2024-02-14T08:56:04;100873.40;;;5.70
71205;BMP180;58935;54.498;18.544;2024-02-14T08:58:29;100879.40;;;5.80
71205;BMP180;58935;54.498;18.544;2024-02-14T09:00:55;100877.80;;;5.90
71205;BMP180;58935;54.498;18.544;2024-02-14T09:03:23;100876.80;;;6.00
71205;BMP180;58935;54.498;18.544;2024-02-14T09:05:48;100879.80;;;6.10
71205;BMP180;58935;54.498;18.544;2024-02-14T09:08:14;100875.80;;;6.18
71205;BMP180;58935;54.498;18.544;2024-02-14T09:10:39;100879.60;;;6.22
71205;BMP180;58935;54.498;18.544;2024-02-14T09:13:05;100886.40;;;6.34
71205;BMP180;58935;54.498;18.544;2024-02-14T09:15:33;100890.00;;;6.42
71205;BMP180;58935;54.498;18.544;2024-02-14T09:17:59;100883.00;;;6.50
71205;BMP180;58935;54.498;18.544;2024-02-14T09:20:25;100885.40;;;6.70
71205;BMP180;58935;54.498;18.544;2024-02-14T09:22:51;100887.40;;;6.80
71205;BMP180;58935;54.498;18.544;2024-02-14T09:25:16;100887.60;;;6.90
71205;BMP180;58935;54.498;18.544;2024-02-14T09:27:42;100888.40;;;7.00
71205;BMP180;58935;54.498;18.544;2024-02-14T09:30:09;100896.80;;;7.14
71205;BMP180;58935;54.498;18.544;2024-02-14T09:32:37;100896.80;;;7.22
71205;BMP180;58935;54.498;18.544;2024-02-14T09:35:07;100891.80;;;7.30
71205;BMP180;58935;54.498;18.544;2024-02-14T09:37:32;100891.00;;;7.30
71205;BMP180;58935;54.498;18.544;2024-02-14T09:39:58;100890.00;;;7.40
71205;BMP180;58935;54.498;18.544;2024-02-14T09:44:59;100889.80;;;7.60
71205;BMP180;58935;54.498;18.544;2024-02-14T09:47:30;100888.60;;;7.68
71205;BMP180;58935;54.498;18.544;2024-02-14T09:49:59;100892.60;;;7.60
71205;BMP180;58935;54.498;18.544;2024-02-14T09:52:26;100888.40;;;7.60
71205;BMP180;58935;54.498;18.544;2024-02-14T09:54:53;100890.20;;;7.60
71205;BMP180;58935;54.498;18.544;2024-02-14T09:57:19;100893.00;;;7.70
71205;BMP180;58935;54.498;18.544;2024-02-14T09:59:46;100886.00;;;7.80
71205;BMP180;58935;54.498;18.544;2024-02-14T10:02:13;100886.60;;;7.90
71205;BMP180;58935;54.498;18.544;2024-02-14T10:04:39;100886.00;;;7.96
71205;BMP180;58935;54.498;18.544;2024-02-14T10:07:05;100881.60;;;8.00
71205;BMP180;58935;54.498;18.544;2024-02-14T10:09:30;100886.20;;;8.00
71205;BMP180;58935;54.498;18.544;2024-02-14T10:11:56;100876.80;;;8.10
71205;BMP180;58935;54.498;18.544;2024-02-14T10:14:23;100879.00;;;8.10
71205;BMP180;58935;54.498;18.544;2024-02-14T10:16:51;100883.20;;;8.20
71205;BMP180;58935;54.498;18.544;2024-02-14T10:19:19;100881.60;;;8.30
71205;BMP180;58935;54.498;18.544;2024-02-14T10:21:57;100884.60;;;8.40
71205;BMP180;58935;54.498;18.544;2024-02-14T10:24:26;100884.60;;;8.40
71205;BMP180;58935;54.498;18.544;2024-02-14T10:26:53;100884.80;;;8.50
71205;BMP180;58935;54.498;18.544;2024-02-14T10:29:20;100877.80;;;8.60
71205;BMP180;58935;54.498;18.544;2024-02-14T10:31:46;100876.00;;;8.70
71205;BMP180;58935;54.498;18.544;2024-02-14T10:34:12;100878.00;;;8.70
71205;BMP180;58935;54.498;18.544;2024-02-14T10:36:43;100879.60;;;8.80
71205;BMP180;58935;54.498;18.544;2024-02-14T10:39:11;100875.00;;;8.90
71205;BMP180;58935;54.498;18.544;2024-02-14T10:41:36;100875.20;;;8.90
71205;BMP180;58935;54.498;18.544;2024-02-14T10:44:03;100872.00;;;9.00
71205;BMP180;58935;54.498;18.544;2024-02-14T10:46:33;100872.60;;;9.00
71205;BMP180;58935;54.498;18.544;2024-02-14T10:49:04;100873.00;;;9.08
71205;BMP180;58935;54.498;18.544;2024-02-14T10:51:33;100865.40;;;9.10
71205;BMP180;58935;54.498;18.544;2024-02-14T10:54:10;100863.20;;;9.20
71205;BMP180;58935;54.498;18.544;2024-02-14T10:56:39;100869.20;;;9.26
71205;BMP180;58935;54.498;18.544;2024-02-14T10:59:08;100855.40;;;9.20
71205;BMP180;58935;54.498;18.544;2024-02-14T11:01:38;100852.80;;;9.20
71205;BMP180;58935;54.498;18.544;2024-02-14T11:04:04;100845.20;;;9.20
71205;BMP180;58935;54.498;18.544;2024-02-14T11:06:30;100854.00;;;9.20
71205;BMP180;58935;54.498;18.544;2024-02-14T11:09:02;100852.80;;;9.20
71205;BMP180;58935;54.498;18.544;2024-02-14T11:11:33;100847.20;;;9.30
71205;BMP180;58935;54.498;18.544;2024-02-14T11:13:59;100844.80;;;9.30
71205;BMP180;58935;54.498;18.544;2024-02-14T11:16:27;100846.40;;;9.40
71205;BMP180;58935;54.498;18.544;2024-02-14T11:19:13;100845.20;;;9.40
71205;BMP180;58935;54.498;18.544;2024-02-14T11:21:42;100848.80;;;9.40
71205;BMP180;58935;54.498;18.544;2024-02-14T11:24:13;100836.20;;;9.40
71205;BMP180;58935;54.498;18.544;2024-02-14T11:26:48;100843.00;;;9.30
71205;BMP180;58935;54.498;18.544;2024-02-14T11:29:16;100835.60;;;9.30
71205;BMP180;58935;54.498;18.544;2024-02-14T11:31:42;100827.80;;;9.30
71205;BMP180;58935;54.498;18.544;2024-02-14T11:34:13;100837.40;;;9.20
71205;BMP180;58935;54.498;18.544;2024-02-14T11:36:41;100824.60;;;9.10
71205;BMP180;58935;54.498;18.544;2024-02-14T11:39:10;100825.40;;;9.10
71205;BMP180;58935;54.498;18.544;2024-02-14T11:41:37;100835.80;;;9.00
71205;BMP180;58935;54.498;18.544;2024-02-14T11:44:04;100826.00;;;9.00
71205;BMP180;58935;54.498;18.544;2024-02-14T11:46:31;100825.60;;;9.00
71205;BMP180;58935;54.498;18.544;2024-02-14T11:49:02;100818.80;;;9.00
71205;BMP180;58935;54.498;18.544;2024-02-14T11:51:29;100815.80;;;9.00
71205;BMP180;58935;54.498;18.544;2024-02-14T11:53:59;100816.40;;;9.08
71205;BMP180;58935;54.498;18.544;2024-02-14T11:56:31;100812.00;;;9.10
71205;BMP180;58935;54.498;18.544;2024-02-14T11:59:00;100814.00;;;9.20
71205;BMP180;58935;54.498;18.544;2024-02-14T12:01:31;100818.80;;;9.22
71205;BMP180;58935;54.498;18.544;2024-02-14T12:04:00;100816.60;;;9.30
71205;BMP180;58935;54.498;18.544;2024-02-14T12:06:28;100816.20;;;9.26
71205;BMP180;58935;54.498;18.544;2024-02-14T12:08:55;100810.60;;;9.10
71205;BMP180;58935;54.498;18.544;2024-02-14T12:11:21;100822.00;;;9.00
71205;BMP180;58935;54.498;18.544;2024-02-14T12:13:50;100824.80;;;8.96
71205;BMP180;58935;54.498;18.544;2024-02-14T12:16:15;100816.60;;;9.00
71205;BMP180;58935;54.498;18.544;2024-02-14T12:18:41;100821.40;;;9.00
71205;BMP180;58935;54.498;18.544;2024-02-14T12:21:07;100802.40;;;9.10
71205;BMP180;58935;54.498;18.544;2024-02-14T12:23:33;100815.80;;;9.10
71205;BMP180;58935;54.498;18.544;2024-02-14T12:26:03;100804.60;;;9.12
71205;BMP180;58935;54.498;18.544;2024-02-14T12:28:31;100808.40;;;9.20
71205;BMP180;58935;54.498;18.544;2024-02-14T12:30:58;100809.20;;;9.30
71205;BMP180;58935;54.498;18.544;2024-02-14T12:33:25;100807.20;;;9.34
71205;BMP180;58935;54.498;18.544;2024-02-14T12:35:54;100809.60;;;9.40
71205;BMP180;58935;54.498;18.544;2024-02-14T12:38:21;100804.20;;;9.50
71205;BMP180;58935;54.498;18.544;2024-02-14T12:40:48;100805.80;;;9.60
71205;BMP180;58935;54.498;18.544;2024-02-14T12:43:15;100799.40;;;9.60
71205;BMP180;58935;54.498;18.544;2024-02-14T12:45:42;100795.80;;;9.70
71205;BMP180;58935;54.498;18.544;2024-02-14T12:48:10;100789.80;;;9.70
71205;BMP180;58935;54.498;18.544;2024-02-14T12:50:38;100791.40;;;9.70
71205;BMP180;58935;54.498;18.544;2024-02-14T12:53:04;100785.60;;;9.70
71205;BMP180;58935;54.498;18.544;2024-02-14T12:55:30;100791.00;;;9.80
71205;BMP180;58935;54.498;18.544;2024-02-14T12:57:56;100796.60;;;9.80
71205;BMP180;58935;54.498;18.544;2024-02-14T13:00:24;100787.20;;;9.90
71205;BMP180;58935;54.498;18.544;2024-02-14T13:02:51;100791.40;;;9.90
71205;BMP180;58935;54.498;18.544;2024-02-14T13:05:17;100794.80;;;9.90
71205;BMP180;58935;54.498;18.544;2024-02-14T13:07:43;100799.00;;;10.00
71205;BMP180;58935;54.498;18.544;2024-02-14T13:10:09;100798.80;;;10.02
71205;BMP180;58935;54.498;18.544;2024-02-14T13:12:37;100798.60;;;10.10
71205;BMP180;58935;54.498;18.544;2024-02-14T13:15:07;100799.80;;;10.12
71205;BMP180;58935;54.498;18.544;2024-02-14T13:17:33;100796.80;;;10.20
71205;BMP180;58935;54.498;18.544;2024-02-14T13:19:58;100795.40;;;10.20
71205;BMP180;58935;54.498;18.544;2024-02-14T13:22:27;100799.60;;;10.20
71205;BMP180;58935;54.498;18.544;2024-02-14T13:24:53;100800.20;;;10.20
71205;BMP180;58935;54.498;18.544;2024-02-14T13:27:19;100789.40;;;10.20
71205;BMP180;58935;54.498;18.544;2024-02-14T13:29:47;100794.20;;;10.20
71205;BMP180;58935;54.498;18.544;2024-02-14T13:32:13;100791.40;;;10.20
71205;BMP180;58935;54.498;18.544;2024-02-14T13:34:38;100789.80;;;10.30
71205;BMP180;58935;54.498;18.544;2024-02-14T13:37:04;100787.20;;;10.30
71205;BMP180;58935;54.498;18.544;2024-02-14T13:39:29;100793.00;;;10.30
71205;BMP180;58935;54.498;18.544;2024-02-14T13:41:57;100794.00;;;10.22
71205;BMP180;58935;54.498;18.544;2024-02-14T13:44:25;100794.80;;;10.20
71205;BMP180;58935;54.498;18.544;2024-02-14T13:46:50;100797.00;;;10.10
71205;BMP180;58935;54.498;18.544;2024-02-14T13:49:18;100802.20;;;10.10
71205;BMP180;58935;54.498;18.544;2024-02-14T13:51:48;100798.40;;;10.00
71205;BMP180;58935;54.498;18.544;2024-02-14T13:54:15;100792.40;;;9.90
71205;BMP180;58935;54.498;18.544;2024-02-14T13:56:41;100786.60;;;9.80
71205;BMP180;58935;54.498;18.544;2024-02-14T13:59:06;100795.60;;;9.70
71205;BMP180;58935;54.498;18.544;2024-02-14T14:01:31;100794.00;;;9.60